Time;durP1;ratioP1;P1;durP2;ratioP2;P2;SDS_P1;SDS_P2;PMS_P1;PMS_P2;Temp;Humidity;BMP_temperature;BMP_pressure;BME280_temperature;BME280_humidity;BME280_pressure;Samples;Min_cycle;Max_cycle;Signal;HPM_P1;HPM_P2
2023/12/01 00:00:24;;;;;;;;;;;;;;;;;;5073271;28;19954;-77
2023/12/01 00:02:50;;;;;;;;;;;;;;;;;;5073360;28;19909;-77
2023/12/01 00:05:16;;;;;;;;;;;;;;;;;;5072917;28;19908;-76
2023/12/01 00:07:42;;;;;;;;;;;;;;;;;;5073252;28;20339;-77
2023/12/01 00:10:08;;;;;;;;;;;;;;;;;;5073365;28;19920;-76
2023/12/01 00:12:34;;;;;;;;;;;;;;;;;;5072822;28;19931;-77
2023/12/01 00:15:00;;;;;;;;;;;;;;;;;;5073223;28;19908;-76
2023/12/01 00:17:26;;;;;;;;;;;;;;;;;;5073183;28;19912;-76
2023/12/01 00:19:52;;;;;;;;;;;;;;;;;;5072736;28;19909;-77
2023/12/01 00:22:18;;;;;;;;;;;;;;;;;;5073205;28;19916;-76
2023/12/01 00:24:44;;;;;;;;;;;;;;;;;;5071845;28;19908;-76
2023/12/01 00:27:10;;;;;;;;;;;;;;;;;;5072737;28;19909;-77
2023/12/01 00:29:36;;;;;;;;;;;;;;;;;;5072819;28;20019;-77
2023/12/01 00:32:02;;;;;;;;;;;;;;;;;;5072815;28;19916;-77
2023/12/01 00:34:28;;;;;;;;;;;;;;;;;;5070635;28;19913;-77
2023/12/01 00:36:55;;;;;;;;;;;;;;;;;;5074574;28;20299;-77
2023/12/01 00:39:21;;;;;;;;;;;;;;;;;;5075772;28;19915;-77
2023/12/01 00:41:47;;;;;;;;;;;;;;;;;;5076425;28;19908;-77
2023/12/01 00:44:12;;;;;;;;;;;;;;;;;;5076018;28;19908;-77
2023/12/01 00:46:38;;;;;;;;;;;;;;;;;;5075948;28;19913;-76
2023/12/01 00:49:04;;;;;;;;;;;;;;;;;;5074912;28;19916;-76
2023/12/01 00:51:30;;;;;;;;;;;;;;;;;;5076209;28;19909;-76
2023/12/01 00:53:56;;;;;;;;;;;;;;;;;;5074407;28;20280;-76
2023/12/01 00:56:22;;;;;;;;;;;;;;;;;;5076089;28;19909;-76
2023/12/01 00:58:48;;;;;;;;;;;;;;;;;;5076048;28;20012;-77
2023/12/01 01:01:14;;;;;;;;;;;;;;;;;;5076035;28;19909;-76
2023/12/01 01:03:41;;;;;;;;;;;;;;;;;;5075828;28;20451;-76
2023/12/01 01:06:07;;;;;;;;;;;;;;;;;;5075708;28;19909;-76
2023/12/01 01:08:33;;;;;;;;;;;;;;;;;;5075411;28;19916;-76
2023/12/01 01:10:59;;;;;;;;;;;;;;;;;;5075666;28;19913;-76
2023/12/01 01:13:25;;;;;;;;;;;;;;;;;;5075832;28;20292;-76
2023/12/01 01:15:51;;;;;;;;;;;;;;;;;;5074225;28;19908;-76
2023/12/01 01:18:17;;;;;;;;;;;;;;;;;;5075651;28;20035;-76
2023/12/01 01:20:43;;;;;;;;;;;;;;;;;;5075598;28;19955;-75
2023/12/01 01:23:09;;;;;;;;;;;;;;;;;;5075073;28;20396;-76
2023/12/01 01:25:35;;;;;;;;;;;;;;;;;;5075621;28;20407;-76
2023/12/01 01:28:01;;;;;;;;;;;;;;;;;;5075102;28;20007;-76
2023/12/01 01:30:27;;;;;;;;;;;;;;;;;;5075037;28;19952;-76
2023/12/01 01:32:53;;;;;;;;;;;;;;;;;;5075396;28;19908;-76
2023/12/01 01:35:19;;;;;;;;;;;;;;;;;;5074924;28;19913;-76
2023/12/01 01:37:45;;;;;;;;;;;;;;;;;;5075255;28;19955;-76
2023/12/01 01:40:12;;;;;;;;;;;;;;;;;;5075104;28;19913;-76
2023/12/01 01:42:38;;;;;;;;;;;;;;;;;;5074830;28;20419;-76
2023/12/01 01:45:04;;;;;;;;;;;;;;;;;;5075061;28;19909;-76
2023/12/01 01:47:30;;;;;;;;;;;;;;;;;;5075156;28;19934;-75
2023/12/01 01:49:56;;;;;;;;;;;;;;;;;;5074391;28;19923;-76
2023/12/01 01:52:22;;;;;;;;;;;;;;;;;;5075065;28;20284;-76
2023/12/01 01:54:48;;;;;;;;;;;;;;;;;;5074891;28;20025;-76
2023/12/01 01:57:14;;;;;;;;;;;;;;;;;;5074608;28;19908;-76
2023/12/01 01:59:40;;;;;;;;;;;;;;;;;;5074875;28;20011;-76
2023/12/01 02:02:05;;;;;;;;;;;;;;;;;;5074680;28;19909;-76
2023/12/01 02:04:31;;;;;;;;;;;;;;;;;;5074184;28;19908;-76
2023/12/01 02:06:58;;;;;;;;;;;;;;;;;;5074865;28;19908;-76
2023/12/01 02:09:24;;;;;;;;;;;;;;;;;;5074576;28;20283;-76
2023/12/01 02:11:50;;;;;;;;;;;;;;;;;;5074200;28;19909;-76
2023/12/01 02:14:16;;;;;;;;;;;;;;;;;;5074389;28;19924;-76
2023/12/01 02:16:45;;;;;;;;;;;;;;;;;;5074567;28;19909;-76
2023/12/01 02:19:12;;;;;;;;;;;;;;;;;;5074091;28;19908;-75
2023/12/01 02:21:38;;;;;;;;;;;;;;;;;;5074404;28;19912;-76
2023/12/01 02:24:04;;;;;;;;;;;;;;;;;;5074175;28;19909;-76
2023/12/01 02:26:30;;;;;;;;;;;;;;;;;;5074096;28;19954;-76
2023/12/01 02:28:56;;;;;;;;;;;;;;;;;;5074147;28;19960;-76
2023/12/01 02:31:22;;;;;;;;;;;;;;;;;;5074386;28;19944;-76
2023/12/01 02:33:48;;;;;;;;;;;;;;;;;;5073842;28;19916;-77
2023/12/01 02:36:15;;;;;;;;;;;;;;;;;;5072852;28;19947;-76
2023/12/01 02:38:41;;;;;;;;;;;;;;;;;;5073902;28;20271;-76
2023/12/01 02:41:07;;;;;;;;;;;;;;;;;;5073008;28;19909;-76
2023/12/01 02:43:33;;;;;;;;;;;;;;;;;;5072958;28;20376;-76
2023/12/01 02:45:59;;;;;;;;;;;;;;;;;;5073867;28;20376;-76
2023/12/01 02:48:24;;;;;;;;;;;;;;;;;;5074046;28;20405;-76
2023/12/01 02:50:50;;;;;;;;;;;;;;;;;;5072818;28;20387;-76
2023/12/01 02:53:16;;;;;;;;;;;;;;;;;;5072349;28;19915;-75
2023/12/01 02:55:42;;;;;;;;;;;;;;;;;;5074291;28;19908;-76
2023/12/01 02:58:08;;;;;;;;;;;;;;;;;;5074005;28;19916;-76
2023/12/01 03:00:35;;;;;;;;;;;;;;;;;;5073667;28;20004;-76
2023/12/01 03:03:01;;;;;;;;;;;;;;;;;;5073919;28;20011;-76
2023/12/01 03:05:27;;;;;;;;;;;;;;;;;;5072625;28;20377;-76
2023/12/01 03:07:53;;;;;;;;;;;;;;;;;;5073666;28;20375;-76
2023/12/01 03:10:19;;;;;;;;;;;;;;;;;;5072499;28;19924;-76
2023/12/01 03:12:45;;;;;;;;;;;;;;;;;;5073936;28;19912;-76
2023/12/01 03:15:10;;;;;;;;;;;;;;;;;;5073482;28;19909;-75
2023/12/01 03:17:37;;;;;;;;;;;;;;;;;;5072458;28;19966;-75
2023/12/01 03:20:08;;;;;;;;;;;;;;;;;;5072491;28;19993;-76
2023/12/01 03:22:34;;;;;;;;;;;;;;;;;;5073525;28;19908;-76
2023/12/01 03:24:59;;;;;;;;;;;;;;;;;;5073635;28;19986;-76
2023/12/01 03:27:25;;;;;;;;;;;;;;;;;;5073652;28;19916;-76
2023/12/01 03:29:54;;;;;;;;;;;;;;;;;;5073269;28;19916;-76
2023/12/01 03:32:20;;;;;;;;;;;;;;;;;;5072281;28;20288;-76
2023/12/01 03:34:46;;;;;;;;;;;;;;;;;;5073612;28;19909;-77
2023/12/01 03:37:12;;;;;;;;;;;;;;;;;;5071814;28;19955;-76
2023/12/01 03:39:38;;;;;;;;;;;;;;;;;;5073768;28;19912;-76
2023/12/01 03:42:04;;;;;;;;;;;;;;;;;;5073102;28;19977;-77
2023/12/01 03:44:32;;;;;;;;;;;;;;;;;;5073472;28;20010;-77
2023/12/01 03:46:58;;;;;;;;;;;;;;;;;;5073414;28;19916;-76
2023/12/01 03:49:24;;;;;;;;;;;;;;;;;;5073025;28;20332;-76
2023/12/01 03:51:52;;;;;;;;;;;;;;;;;;5072096;28;19931;-76
2023/12/01 03:54:17;;;;;;;;;;;;;;;;;;5073412;28;20066;-76
2023/12/01 03:56:43;;;;;;;;;;;;;;;;;;5073149;28;20453;-76
2023/12/01 03:59:09;;;;;;;;;;;;;;;;;;5073393;28;20268;-76
2023/12/01 04:01:35;;;;;;;;;;;;;;;;;;5073606;28;19913;-77
2023/12/01 04:04:01;;;;;;;;;;;;;;;;;;5073079;28;19960;-76
2023/12/01 04:06:27;;;;;;;;;;;;;;;;;;5071931;28;19915;-77
2023/12/01 04:08:53;;;;;;;;;;;;;;;;;;5073307;28;19916;-77
2023/12/01 04:11:19;;;;;;;;;;;;;;;;;;5074867;28;19908;-77
2023/12/01 04:13:45;;;;;;;;;;;;;;;;;;5077038;28;19908;-77
2023/12/01 04:16:11;;;;;;;;;;;;;;;;;;5077078;28;20269;-76
2023/12/01 04:18:38;;;;;;;;;;;;;;;;;;5076687;28;20245;-77
2023/12/01 04:21:08;;;;;;;;;;;;;;;;;;5075619;28;20288;-76
2023/12/01 04:23:34;;;;;;;;;;;;;;;;;;5076858;28;19923;-76
2023/12/01 04:26:00;;;;;;;;;;;;;;;;;;5075108;28;19908;-76
2023/12/01 04:28:26;;;;;;;;;;;;;;;;;;5076442;28;19975;-76
2023/12/01 04:30:52;;;;;;;;;;;;;;;;;;5077041;28;19939;-77
2023/12/01 04:33:18;;;;;;;;;;;;;;;;;;5076346;28;19909;-77
2023/12/01 04:35:44;;;;;;;;;;;;;;;;;;5076684;28;19912;-77
2023/12/01 04:38:10;;;;;;;;;;;;;;;;;;5076257;28;19915;-76
2023/12/01 04:40:39;;;;;;;;;;;;;;;;;;5076536;28;19908;-77
2023/12/01 04:43:05;;;;;;;;;;;;;;;;;;5077089;28;20361;-77
2023/12/01 04:45:31;;;;;;;;;;;;;;;;;;5076346;28;19912;-77
2023/12/01 04:47:57;;;;;;;;;;;;;;;;;;5076643;28;19908;-77
2023/12/01 04:50:23;;;;;;;;;;;;;;;;;;5076352;28;19912;-77
2023/12/01 04:52:49;;;;;;;;;;;;;;;;;;5075981;28;19916;-76
2023/12/01 04:55:15;;;;;;;;;;;;;;;;;;5076313;28;19965;-76
2023/12/01 04:57:41;;;;;;;;;;;;;;;;;;5076861;28;20341;-77
2023/12/01 05:00:25;;;;;;;;;;;;;;;;;;5075908;28;19912;-77
2023/12/01 05:02:51;;;;;;;;;;;;;;;;;;5076736;28;19909;-77
2023/12/01 05:05:17;;;;;;;;;;;;;;;;;;5074950;28;19908;-76
2023/12/01 05:07:43;;;;;;;;;;;;;;;;;;5075923;28;20311;-77
2023/12/01 05:10:14;;;;;;;;;;;;;;;;;;5076016;28;20288;-77
2023/12/01 05:12:40;;;;;;;;;;;;;;;;;;5076588;28;19995;-76
2023/12/01 05:15:15;;;;;;;;;;;;;;;;;;5075581;28;20031;-76
2023/12/01 05:17:41;;;;;;;;;;;;;;;;;;5075992;28;19951;-76
2023/12/01 05:20:15;;;;;;;;;;;;;;;;;;5074928;28;20273;-77
2023/12/01 05:22:41;;;;;;;;;;;;;;;;;;5073620;28;19912;-76
2023/12/01 05:25:06;;;;;;;;;;;;;;;;;;5075867;28;20453;-76
2023/12/01 05:27:32;;;;;;;;;;;;;;;;;;5075330;28;19935;-76
2023/12/01 05:29:58;;;;;;;;;;;;;;;;;;5075468;28;19921;-79
2023/12/01 05:32:24;;;;;;;;;;;;;;;;;;5073679;28;20281;-77
2023/12/01 05:34:50;;;;;;;;;;;;;;;;;;5073522;28;20314;-76
2023/12/01 05:37:16;;;;;;;;;;;;;;;;;;5074775;28;20360;-76
2023/12/01 05:39:42;;;;;;;;;;;;;;;;;;5075105;28;20288;-76
2023/12/01 05:42:08;;;;;;;;;;;;;;;;;;5074898;28;19954;-76
2023/12/01 05:44:34;;;;;;;;;;;;;;;;;;5075231;28;19967;-76
2023/12/01 05:47:00;;;;;;;;;;;;;;;;;;5075370;28;19909;-76
2023/12/01 05:49:26;;;;;;;;;;;;;;;;;;5075062;28;19923;-76
2023/12/01 05:51:52;;;;;;;;;;;;;;;;;;5075582;28;20349;-76
2023/12/01 05:54:18;;;;;;;;;;;;;;;;;;5075192;28;19915;-76
2023/12/01 05:56:44;;;;;;;;;;;;;;;;;;5074661;28;19919;-76
2023/12/01 05:59:10;;;;;;;;;;;;;;;;;;5073676;28;19996;-76
2023/12/01 06:01:36;;;;;;;;;;;;;;;;;;5075010;28;19909;-77
2023/12/01 06:04:02;;;;;;;;;;;;;;;;;;5074622;28;19922;-76
2023/12/01 06:06:28;;;;;;;;;;;;;;;;;;5070964;28;19912;-72
2023/12/01 06:08:54;;;;;;;;;;;;;;;;;;5073192;28;19928;-75
2023/12/01 06:11:20;;;;;;;;;;;;;;;;;;5073920;28;19935;-74
2023/12/01 06:13:46;;;;;;;;;;;;;;;;;;5069819;28;19909;-72
2023/12/01 06:16:12;;;;;;;;;;;;;;;;;;5069565;28;19948;-73
2023/12/01 06:18:38;;;;;;;;;;;;;;;;;;5073912;28;20583;-71
2023/12/01 06:21:04;;;;;;;;;;;;;;;;;;5067513;28;19912;-72
2023/12/01 06:23:32;;;;;;;;;;;;;;;;;;5070882;28;19912;-72
2023/12/01 06:25:58;;;;;;;;;;;;;;;;;;5071317;28;20407;-72
2023/12/01 06:28:26;;;;;;;;;;;;;;;;;;5059603;28;19922;-72
2023/12/01 06:30:53;;;;;;;;;;;;;;;;;;5044329;28;20336;-70
2023/12/01 06:33:19;;;;;;;;;;;;;;;;;;5047802;28;19920;-68
2023/12/01 06:35:44;;;;;;;;;;;;;;;;;;5059378;28;20011;-68
2023/12/01 06:38:11;;;;;;;;;;;;;;;;;;5060498;28;20375;-70
2023/12/01 06:40:37;;;;;;;;;;;;;;;;;;5059249;28;19920;-69
2023/12/01 06:43:09;;;;;;;;;;;;;;;;;;5057553;28;19923;-68
2023/12/01 06:45:36;;;;;;;;;;;;;;;;;;5055598;28;19958;-69
2023/12/01 06:48:02;;;;;;;;;;;;;;;;;;5052298;28;19923;-69
2023/12/01 06:50:29;;;;;;;;;;;;;;;;;;5057117;28;19916;-68
2023/12/01 06:52:55;;;;;;;;;;;;;;;;;;5058772;28;19975;-70
2023/12/01 06:55:21;;;;;;;;;;;;;;;;;;5060459;28;20332;-71
2023/12/01 06:57:46;;;;;;;;;;;;;;;;;;5061366;28;19920;-69
2023/12/01 07:00:29;;;;;;;;;;;;;;;;;;5066373;28;19915;-68
2023/12/01 07:02:59;;;;;;;;;;;;;;;;;;5062282;28;19916;-68
2023/12/01 07:05:25;;;;;;;;;;;;;;;;;;5064191;28;20440;-68
2023/12/01 07:07:51;;;;;;;;;;;;;;;;;;5062254;28;19939;-69
2023/12/01 07:10:17;;;;;;;;;;;;;;;;;;5053842;28;20856;-70
2023/12/01 07:12:43;;;;;;;;;;;;;;;;;;5052418;28;20523;-68
2023/12/01 07:15:12;;;;;;;;;;;;;;;;;;5036726;28;19920;-68
2023/12/01 07:17:38;;;;;;;;;;;;;;;;;;5041451;28;19923;-69
2023/12/01 07:20:12;;;;;;;;;;;;;;;;;;5041535;28;20133;-69
2023/12/01 07:22:38;;;;;;;;;;;;;;;;;;5040041;28;20132;-68
2023/12/01 07:25:10;;;;;;;;;;;;;;;;;;5048367;28;20264;-68
2023/12/01 07:27:36;;;;;;;;;;;;;;;;;;5064486;28;19921;-73
2023/12/01 07:30:02;;;;;;;;;;;;;;;;;;5042822;28;19931;-70
2023/12/01 07:32:28;;;;;;;;;;;;;;;;;;5052502;28;19912;-71
2023/12/01 07:34:54;;;;;;;;;;;;;;;;;;5060063;28;19913;-69
2023/12/01 07:37:20;;;;;;;;;;;;;;;;;;5057924;28;20318;-69
2023/12/01 07:39:46;;;;;;;;;;;;;;;;;;5059668;28;19908;-70
2023/12/01 07:42:12;;;;;;;;;;;;;;;;;;5048164;28;19970;-68
2023/12/01 07:44:38;;;;;;;;;;;;;;;;;;5060420;28;19920;-69
2023/12/01 07:47:07;;;;;;;;;;;;;;;;;;5072952;28;19981;-70
2023/12/01 07:49:33;;;;;;;;;;;;;;;;;;5086158;28;20326;-69
2023/12/01 07:51:59;;;;;;;;;;;;;;;;;;5063047;28;19921;-70
2023/12/01 07:54:26;;;;;;;;;;;;;;;;;;5048793;28;19917;-70
2023/12/01 07:56:52;;;;;;;;;;;;;;;;;;5049111;28;20375;-72
2023/12/01 07:59:18;;;;;;;;;;;;;;;;;;5039205;28;19923;-70
2023/12/01 08:01:44;;;;;;;;;;;;;;;;;;5059109;28;19927;-74
2023/12/01 08:04:10;;;;;;;;;;;;;;;;;;5052904;28;19925;-71
2023/12/01 08:06:35;;;;;;;;;;;;;;;;;;5046572;28;20613;-71
2023/12/01 08:09:01;;;;;;;;;;;;;;;;;;5047181;28;20369;-70
2023/12/01 08:11:30;;;;;;;;;;;;;;;;;;5039473;28;20543;-70
2023/12/01 08:13:56;;;;;;;;;;;;;;;;;;5084928;28;20343;-70
2023/12/01 08:16:22;;;;;;;;;;;;;;;;;;5071457;28;19915;-70
2023/12/01 08:18:48;;;;;;;;;;;;;;;;;;5074240;28;19913;-71
2023/12/01 08:21:14;;;;;;;;;;;;;;;;;;5067853;28;19955;-70
2023/12/01 08:23:40;;;;;;;;;;;;;;;;;;5062557;28;19912;-71
2023/12/01 08:26:07;;;;;;;;;;;;;;;;;;5068316;28;20434;-71
2023/12/01 08:28:33;;;;;;;;;;;;;;;;;;5069734;28;19925;-71
2023/12/01 08:30:59;;;;;;;;;;;;;;;;;;5071724;28;20356;-71
2023/12/01 08:33:25;;;;;;;;;;;;;;;;;;5073762;28;20298;-73
2023/12/01 08:35:51;;;;;;;;;;;;;;;;;;5068806;28;19928;-70
2023/12/01 08:38:16;;;;;;;;;;;;;;;;;;5072546;28;19920;-71
2023/12/01 08:40:42;;;;;;;;;;;;;;;;;;5071560;28;19913;-73
2023/12/01 08:43:09;;;;;;;;;;;;;;;;;;5069600;28;19994;-70
2023/12/01 08:45:35;;;;;;;;;;;;;;;;;;5071124;28;20284;-72
2023/12/01 08:48:01;;;;;;;;;;;;;;;;;;5071744;28;19913;-72
2023/12/01 08:50:27;;;;;;;;;;;;;;;;;;5072266;28;19913;-73
2023/12/01 08:52:52;;;;;;;;;;;;;;;;;;5072470;28;19923;-72
2023/12/01 08:55:18;;;;;;;;;;;;;;;;;;5071262;28;19961;-69
2023/12/01 08:57:44;;;;;;;;;;;;;;;;;;5065270;28;19982;-74
2023/12/01 09:00:12;;;;;;;;;;;;;;;;;;5057730;28;19924;-73
2023/12/01 09:02:38;;;;;;;;;;;;;;;;;;5069350;28;20008;-72
2023/12/01 09:05:04;;;;;;;;;;;;;;;;;;5069523;28;19958;-72
2023/12/01 09:07:30;;;;;;;;;;;;;;;;;;5070072;28;19912;-72
2023/12/01 09:09:56;;;;;;;;;;;;;;;;;;5070170;28;19940;-72
2023/12/01 09:12:22;;;;;;;;;;;;;;;;;;5071093;28;19916;-72
2023/12/01 09:14:48;;;;;;;;;;;;;;;;;;5070389;28;20086;-72
2023/12/01 09:17:14;;;;;;;;;;;;;;;;;;5071013;28;19909;-72
2023/12/01 09:19:40;;;;;;;;;;;;;;;;;;5068234;28;19913;-72
2023/12/01 09:22:06;;;;;;;;;;;;;;;;;;5064861;28;19970;-72
2023/12/01 09:24:32;;;;;;;;;;;;;;;;;;5066996;28;19923;-72
2023/12/01 09:26:58;;;;;;;;;;;;;;;;;;5070854;28;19912;-74
2023/12/01 09:29:24;;;;;;;;;;;;;;;;;;5071808;28;19971;-73
2023/12/01 09:31:50;;;;;;;;;;;;;;;;;;5069293;28;19919;-72
2023/12/01 09:34:16;;;;;;;;;;;;;;;;;;5068802;28;19917;-71
2023/12/01 09:36:42;;;;;;;;;;;;;;;;;;5068437;28;19916;-71
2023/12/01 09:39:08;;;;;;;;;;;;;;;;;;5063246;28;20372;-70
2023/12/01 09:41:35;;;;;;;;;;;;;;;;;;5068213;28;19966;-69
2023/12/01 09:44:01;;;;;;;;;;;;;;;;;;5065685;28;19916;-70
2023/12/01 09:46:34;;;;;;;;;;;;;;;;;;5064510;28;19934;-68
2023/12/01 09:48:59;;;;;;;;;;;;;;;;;;5067373;28;20031;-69
2023/12/01 09:51:25;;;;;;;;;;;;;;;;;;5068313;28;19995;-70
2023/12/01 09:53:52;;;;;;;;;;;;;;;;;;5068604;28;20443;-70
2023/12/01 09:56:19;;;;;;;;;;;;;;;;;;5069734;28;19912;-69
2023/12/01 09:58:45;;;;;;;;;;;;;;;;;;5069232;28;19913;-68
2023/12/01 10:01:11;;;;;;;;;;;;;;;;;;5069469;28;19913;-70
2023/12/01 10:03:37;;;;;;;;;;;;;;;;;;5068643;28;20379;-71
2023/12/01 10:06:04;;;;;;;;;;;;;;;;;;5068709;28;19916;-70
2023/12/01 10:08:32;;;;;;;;;;;;;;;;;;5069463;28;19917;-70
2023/12/01 10:10:58;;;;;;;;;;;;;;;;;;5069254;28;19921;-70
2023/12/01 10:13:24;;;;;;;;;;;;;;;;;;5071424;28;20007;-69
2023/12/01 10:15:50;;;;;;;;;;;;;;;;;;5070872;28;20012;-71
2023/12/01 10:18:16;;;;;;;;;;;;;;;;;;5070656;28;20341;-70
2023/12/01 10:20:42;;;;;;;;;;;;;;;;;;5070712;28;19912;-70
2023/12/01 10:23:08;;;;;;;;;;;;;;;;;;5070075;28;19912;-71
2023/12/01 10:25:34;;;;;;;;;;;;;;;;;;5075857;28;19999;-70
2023/12/01 10:28:00;;;;;;;;;;;;;;;;;;5081345;28;19990;-71
2023/12/01 10:30:26;;;;;;;;;;;;;;;;;;5066232;28;19916;-72
2023/12/01 10:32:52;;;;;;;;;;;;;;;;;;5057458;28;19920;-71
2023/12/01 10:35:18;;;;;;;;;;;;;;;;;;5064981;28;20007;-71
2023/12/01 10:37:44;;;;;;;;;;;;;;;;;;5062684;28;19916;-73
2023/12/01 10:40:13;;;;;;;;;;;;;;;;;;5061375;28;19912;-71
2023/12/01 10:42:39;;;;;;;;;;;;;;;;;;5051317;28;19916;-71
2023/12/01 10:45:05;;;;;;;;;;;;;;;;;;5062921;28;20352;-70
2023/12/01 10:47:31;;;;;;;;;;;;;;;;;;5067569;28;20589;-74
2023/12/01 10:49:57;;;;;;;;;;;;;;;;;;5063571;28;20082;-71
2023/12/01 10:52:23;;;;;;;;;;;;;;;;;;5065830;28;19912;-72
2023/12/01 10:54:49;;;;;;;;;;;;;;;;;;5067314;28;19916;-72
2023/12/01 10:57:15;;;;;;;;;;;;;;;;;;5048218;28;19909;-71
2023/12/01 10:59:41;;;;;;;;;;;;;;;;;;5049991;28;19919;-74
2023/12/01 11:02:07;;;;;;;;;;;;;;;;;;5078618;28;20030;-72
2023/12/01 11:04:33;;;;;;;;;;;;;;;;;;5064255;28;19920;-73
2023/12/01 11:06:59;;;;;;;;;;;;;;;;;;5052439;28;19924;-72
2023/12/01 11:09:25;;;;;;;;;;;;;;;;;;5066336;28;20427;-72
2023/12/01 11:11:52;;;;;;;;;;;;;;;;;;5057527;28;20284;-72
2023/12/01 11:14:18;;;;;;;;;;;;;;;;;;5046359;28;19928;-71
2023/12/01 11:16:47;;;;;;;;;;;;;;;;;;5047658;28;19979;-71
2023/12/01 11:19:13;;;;;;;;;;;;;;;;;;5055199;28;19974;-75
2023/12/01 11:21:38;;;;;;;;;;;;;;;;;;5062969;28;20671;-73
2023/12/01 11:24:04;;;;;;;;;;;;;;;;;;5063644;28;20416;-73
2023/12/01 11:26:31;;;;;;;;;;;;;;;;;;5069080;28;19956;-74
2023/12/01 11:28:57;;;;;;;;;;;;;;;;;;5070937;28;19924;-69
2023/12/01 11:32:59;;;;;;;;;;;;;;;;;;5151791;27;20282;-69
2023/12/01 11:37:15;;;;;;;;;;;;;;;;;;5069580;28;19917;-70
2023/12/01 11:41:02;;;;;;;;;;;;;;;;;;5089494;27;19920;-68
2023/12/01 11:43:30;;;;;;;;;;;;;;;;;;5089831;28;19919;-69
2023/12/01 11:45:56;;;;;;;;;;;;;;;;;;5085844;28;19931;-69
2023/12/01 11:48:22;;;;;;;;;;;;;;;;;;5097726;28;19959;-70
2023/12/01 11:50:48;;;;;;;;;;;;;;;;;;5086398;28;19959;-69
2023/12/01 11:53:14;;;;;;;;;;;;;;;;;;5075337;28;19978;-71
2023/12/01 11:57:53;;;;;;;;;;;;;;;;;;5106125;27;19920;-68
2023/12/01 12:02:02;;;;;;;;;;;;;;;;;;5126741;27;19919;-69
2023/12/01 12:04:28;;;;;;;;;;;;;;;;;;5119182;28;20294;-69
2023/12/01 12:08:15;;;;;;;;;;;;;;;;;;5066817;28;19923;-70
2023/12/01 12:10:41;;;;;;;;;;;;;;;;;;5070803;28;19913;-69
2023/12/01 12:13:22;;;;;;;;;;;;;;;;;;5087449;27;19926;-69
2023/12/01 12:15:48;;;;;;;;;;;;;;;;;;5079112;28;19916;-68
2023/12/01 12:18:15;;;;;;;;;;;;;;;;;;5072027;28;19912;-70
2023/12/01 12:20:41;;;;;;;;;;;;;;;;;;5067113;28;19921;-70
2023/12/01 12:27:01;;;;;;;;;;;;;;;;;;5108994;27;20306;-71
2023/12/01 12:29:27;;;;;;;;;;;;;;;;;;5108084;28;19920;-73
2023/12/01 12:31:53;;;;;;;;;;;;;;;;;;5110820;28;19912;-71
2023/12/01 12:34:19;;;;;;;;;;;;;;;;;;5109006;28;19919;-71
2023/12/01 12:39:33;;;;;;;;;;;;;;;;;;5117445;27;19926;-75
2023/12/01 12:42:01;;;;;;;;;;;;;;;;;;5129764;28;20015;-75
2023/12/01 12:44:29;;;;;;;;;;;;;;;;;;5130731;27;20334;-74
2023/12/01 12:46:55;;;;;;;;;;;;;;;;;;5131290;27;19911;-75
2023/12/01 12:54:39;;;;;;;;;;;;;;;;;;5090736;28;19917;-74
2023/12/01 12:57:05;;;;;;;;;;;;;;;;;;5089294;28;20459;-74
2023/12/01 13:00:30;;;;;;;;;;;;;;;;;;5090693;27;19935;-74
2023/12/01 13:02:57;;;;;;;;;;;;;;;;;;5090669;28;20439;-75
2023/12/01 13:05:24;;;;;;;;;;;;;;;;;;5089969;28;19923;-75
2023/12/01 13:09:53;;;;;;;;;;;;;;;;;;5089776;27;19916;-73
2023/12/01 13:13:53;;;;;;;;;;;;;;;;;;5088142;27;19913;-75
2023/12/01 13:17:07;;;;;;;;;;;;;;;;;;5088811;27;19917;-75
2023/12/01 13:19:33;;;;;;;;;;;;;;;;;;5087662;28;20326;-75
2023/12/01 13:24:48;;;;;;;;;;;;;;;;;;5066776;28;20494;-74
2023/12/01 13:27:14;;;;;;;;;;;;;;;;;;5067203;28;19929;-74
2023/12/01 13:29:40;;;;;;;;;;;;;;;;;;5066416;28;19919;-75
2023/12/01 13:32:06;;;;;;;;;;;;;;;;;;5066906;28;20366;-74
2023/12/01 13:34:32;;;;;;;;;;;;;;;;;;5065353;28;19915;-75
2023/12/01 13:36:58;;;;;;;;;;;;;;;;;;5064030;28;20007;-74
2023/12/01 13:39:25;;;;;;;;;;;;;;;;;;5065266;28;19908;-74
2023/12/01 13:41:51;;;;;;;;;;;;;;;;;;5066506;28;20419;-74
2023/12/01 13:44:17;;;;;;;;;;;;;;;;;;5067044;28;19944;-74
2023/12/01 13:46:43;;;;;;;;;;;;;;;;;;5066168;28;20361;-74
2023/12/01 13:49:09;;;;;;;;;;;;;;;;;;5065002;28;19978;-74
2023/12/01 13:51:35;;;;;;;;;;;;;;;;;;5065476;28;19966;-75
2023/12/01 13:54:01;;;;;;;;;;;;;;;;;;5066533;28;19962;-75
2023/12/01 13:56:27;;;;;;;;;;;;;;;;;;5067562;28;20355;-75
2023/12/01 13:58:53;;;;;;;;;;;;;;;;;;5067612;28;19908;-75
2023/12/01 14:01:19;;;;;;;;;;;;;;;;;;5067557;28;19908;-75
2023/12/01 14:03:45;;;;;;;;;;;;;;;;;;5069508;28;19917;-75
2023/12/01 14:06:11;;;;;;;;;;;;;;;;;;5068708;28;19909;-75
2023/12/01 14:08:37;;;;;;;;;;;;;;;;;;5068164;28;19912;-75
2023/12/01 14:11:03;;;;;;;;;;;;;;;;;;5069070;28;20274;-75
2023/12/01 14:13:29;;;;;;;;;;;;;;;;;;5069213;28;19912;-77
2023/12/01 14:15:55;;;;;;;;;;;;;;;;;;5068806;28;19909;-75
2023/12/01 14:18:21;;;;;;;;;;;;;;;;;;5069365;28;19909;-75
2023/12/01 14:20:47;;;;;;;;;;;;;;;;;;5069583;28;19913;-75
2023/12/01 14:23:13;;;;;;;;;;;;;;;;;;5069127;28;19990;-77
2023/12/01 14:25:39;;;;;;;;;;;;;;;;;;5069919;28;19909;-76
2023/12/01 14:28:05;;;;;;;;;;;;;;;;;;5069850;28;20276;-77
2023/12/01 14:30:31;;;;;;;;;;;;;;;;;;5069488;28;19961;-77
2023/12/01 14:32:57;;;;;;;;;;;;;;;;;;5069926;28;19959;-76
2023/12/01 14:35:23;;;;;;;;;;;;;;;;;;5060638;28;19909;-76
2023/12/01 14:37:50;;;;;;;;;;;;;;;;;;5056136;28;19909;-76
2023/12/01 14:40:16;;;;;;;;;;;;;;;;;;5055561;28;20357;-76
2023/12/01 14:42:42;;;;;;;;;;;;;;;;;;5056595;28;19912;-76
2023/12/01 14:45:09;;;;;;;;;;;;;;;;;;5054782;28;19996;-76
2023/12/01 14:47:35;;;;;;;;;;;;;;;;;;5056463;28;20360;-75
2023/12/01 14:50:01;;;;;;;;;;;;;;;;;;5056351;28;19909;-75
2023/12/01 14:52:27;;;;;;;;;;;;;;;;;;5056112;28;20311;-75
2023/12/01 14:54:53;;;;;;;;;;;;;;;;;;5055958;28;20353;-76
2023/12/01 14:57:19;;;;;;;;;;;;;;;;;;5055880;28;19912;-76
2023/12/01 14:59:45;;;;;;;;;;;;;;;;;;5054751;28;19909;-76
2023/12/01 15:02:11;;;;;;;;;;;;;;;;;;5056152;28;19909;-76
2023/12/01 15:04:37;;;;;;;;;;;;;;;;;;5054273;28;20230;-76
2023/12/01 15:07:03;;;;;;;;;;;;;;;;;;5055906;28;19957;-76
2023/12/01 15:09:29;;;;;;;;;;;;;;;;;;5055956;28;20331;-76
2023/12/01 15:11:55;;;;;;;;;;;;;;;;;;5055506;28;20327;-76
2023/12/01 15:14:21;;;;;;;;;;;;;;;;;;5055750;28;19915;-76
2023/12/01 15:16:48;;;;;;;;;;;;;;;;;;5055749;28;19913;-76
2023/12/01 15:19:14;;;;;;;;;;;;;;;;;;5055544;28;20426;-76
2023/12/01 15:21:41;;;;;;;;;;;;;;;;;;5055662;28;20283;-76
2023/12/01 15:24:07;;;;;;;;;;;;;;;;;;5054051;28;20357;-75
2023/12/01 15:26:33;;;;;;;;;;;;;;;;;;5053873;28;19915;-76
2023/12/01 15:28:59;;;;;;;;;;;;;;;;;;5055508;28;19939;-76
2023/12/01 15:31:25;;;;;;;;;;;;;;;;;;5055559;28;19912;-76
2023/12/01 15:33:51;;;;;;;;;;;;;;;;;;5055074;28;19909;-76
2023/12/01 15:36:17;;;;;;;;;;;;;;;;;;5055565;28;19916;-76
2023/12/01 15:38:43;;;;;;;;;;;;;;;;;;5055378;28;19908;-76
2023/12/01 15:41:09;;;;;;;;;;;;;;;;;;5055017;28;19916;-76
2023/12/01 15:43:35;;;;;;;;;;;;;;;;;;5055149;28;19921;-76
2023/12/01 15:46:01;;;;;;;;;;;;;;;;;;5054414;28;19932;-76
2023/12/01 15:48:27;;;;;;;;;;;;;;;;;;5054418;28;20250;-75
2023/12/01 15:50:53;;;;;;;;;;;;;;;;;;5053739;28;19944;-76
2023/12/01 15:53:19;;;;;;;;;;;;;;;;;;5053583;28;19908;-76
2023/12/01 15:55:45;;;;;;;;;;;;;;;;;;5054807;28;19909;-76
2023/12/01 15:58:11;;;;;;;;;;;;;;;;;;5054868;28;20280;-76
2023/12/01 16:00:37;;;;;;;;;;;;;;;;;;5054389;28;20348;-76
2023/12/01 16:03:03;;;;;;;;;;;;;;;;;;5054739;28;20266;-76
2023/12/01 16:05:29;;;;;;;;;;;;;;;;;;5054733;28;19916;-77
2023/12/01 16:07:55;;;;;;;;;;;;;;;;;;5054150;28;20390;-76
2023/12/01 16:10:20;;;;;;;;;;;;;;;;;;5054831;28;20285;-76
2023/12/01 16:12:47;;;;;;;;;;;;;;;;;;5054565;28;20281;-77
2023/12/01 16:15:12;;;;;;;;;;;;;;;;;;5052852;28;20276;-76
2023/12/01 16:17:38;;;;;;;;;;;;;;;;;;5054533;28;20047;-76
2023/12/01 16:20:05;;;;;;;;;;;;;;;;;;5054482;28;19909;-76
2023/12/01 16:22:31;;;;;;;;;;;;;;;;;;5053609;28;19955;-76
2023/12/01 16:24:56;;;;;;;;;;;;;;;;;;5054334;28;19913;-76
2023/12/01 16:27:22;;;;;;;;;;;;;;;;;;5054108;28;19913;-76
2023/12/01 16:29:48;;;;;;;;;;;;;;;;;;5053863;28;19909;-76
2023/12/01 16:32:14;;;;;;;;;;;;;;;;;;5054262;28;19909;-76
2023/12/01 16:34:40;;;;;;;;;;;;;;;;;;5051577;28;19909;-76
2023/12/01 16:37:06;;;;;;;;;;;;;;;;;;5053236;28;19952;-77
2023/12/01 16:39:32;;;;;;;;;;;;;;;;;;5053632;28;20395;-77
2023/12/01 16:41:58;;;;;;;;;;;;;;;;;;5053774;28;20373;-77
2023/12/01 16:44:24;;;;;;;;;;;;;;;;;;5053488;28;20296;-77
2023/12/01 16:46:50;;;;;;;;;;;;;;;;;;5053947;28;20361;-77
2023/12/01 16:49:16;;;;;;;;;;;;;;;;;;5053956;28;19908;-76
2023/12/01 16:51:42;;;;;;;;;;;;;;;;;;5053412;28;19992;-76
2023/12/01 16:54:08;;;;;;;;;;;;;;;;;;5053684;28;20001;-77
2023/12/01 16:56:34;;;;;;;;;;;;;;;;;;5053749;28;19916;-77
2023/12/01 16:59:01;;;;;;;;;;;;;;;;;;5053040;28;19909;-77
2023/12/01 17:01:27;;;;;;;;;;;;;;;;;;5053830;28;19954;-77
2023/12/01 17:03:53;;;;;;;;;;;;;;;;;;5053145;28;19921;-77
2023/12/01 17:06:19;;;;;;;;;;;;;;;;;;5053222;28;19909;-76
2023/12/01 17:08:45;;;;;;;;;;;;;;;;;;5053589;28;19963;-76